Kasilof, AK (99610)

3:45 PM AKDT on July 30, 2016 (GMT -0800)
Moose Range Meadows | | Change Station

Elev 100 ft 60.47 °N, 150.98 °W | Updated 1 minute ago

Clear
Clear
68.5 °F
Feels Like 68.5 °F
N
1.8
Wind Variable Wind from East
Gusts 2.5 mph

Today
High -- | Low -- °F
--% Chance of Precip.
Yesterday
High -- | Low -- °F
Precip. -- in
Pressure 30.04 in
Visibility 10.0 miles
Clouds Clear
Dew Point 53 °F
Humidity 57%
Rainfall 0.00 in
Snow Depth Not available.
5:39 AM 10:40 PM
Waning Crescent, 10% visible
METAR PAEN 302253Z 20023G30KT 10SM CLR 17/11 A3004 RMK AO2 PK WND 20030/2218 SLP172 T01720106
Pressure 30.04 in
Visibility 10.0 miles
Clouds Clear
Dew Point 53 °F
Humidity 57%
Rainfall 0.00 in
Snow Depth Not available.
5:39 AM 10:40 PM
Waning Crescent, 10% visible
METAR PAEN 302253Z 20023G30KT 10SM CLR 17/11 A3004 RMK AO2 PK WND 20030/2218 SLP172 T01720106

10-Day Weather Forecast

Almanac

Astronomy

Jul. 30, 2016 Rise Set
Actual Time
Civil Twilight
Nautical Twilight
Astronomical Twilight
Moon
Length of Visible Light
Length of Day
Tomorrow will be .
, % of the Moon is Illuminated

Today's Extremes

State Highs State Lows

Community

WunderPhotos

Upload Photos

1,928,680 photos uploaded!

WunderBlog® & News

Nearby

Air Quality

  Air Quality AQ Index Pollutant
Not available.

Snow Depth

Station Depth Elevation

Earthquake Activity

City Distance Mag. Time & Date
Minimum magnitude displayed is 2.5.

Coastal Water Temperatures

Place Temperature

Stations

Nearby Weather Stations

Station Location Temp. Windchill Dew Point Humidity Wind Precip. Elev Updated Type
                   

Watches & Warnings

There are currently no watches in effect.